createdAt,value
2018-02-24T00:00:58.409Z,0.59
2018-02-24T00:02:26.436Z,0.54
2018-02-24T00:03:53.507Z,0.51
2018-02-24T00:05:19.453Z,0.49
2018-02-24T00:06:47.704Z,0.50
2018-02-24T00:08:14.789Z,0.50
2018-02-24T00:09:40.796Z,0.47
2018-02-24T00:11:07.923Z,0.47
2018-02-24T00:12:36.258Z,0.44
2018-02-24T00:14:03.331Z,0.41
2018-02-24T00:15:29.495Z,0.39
2018-02-24T00:16:56.439Z,0.39
2018-02-24T00:18:24.692Z,0.43
2018-02-24T00:19:51.814Z,0.48
2018-02-24T00:21:18.094Z,0.54
2018-02-24T00:22:46.112Z,0.58
2018-02-24T00:24:12.155Z,0.61
2018-02-24T00:25:40.489Z,0.64
2018-02-24T00:27:06.516Z,0.67
2018-02-24T00:28:33.413Z,0.67
2018-02-24T00:30:01.573Z,0.69
2018-02-24T00:31:33.680Z,0.71
2018-02-24T00:32:54.626Z,0.72
2018-02-24T00:34:21.837Z,0.74
2018-02-24T00:35:49.981Z,0.74
2018-02-24T00:37:17.231Z,0.70
2018-02-24T00:38:44.250Z,0.71
2018-02-24T00:40:10.040Z,0.73
2018-02-24T00:41:37.247Z,0.67
2018-02-24T00:43:04.329Z,0.67
2018-02-24T00:44:31.279Z,0.63
2018-02-24T00:45:58.391Z,0.60
2018-02-24T00:47:26.470Z,0.53
2018-02-24T00:48:52.636Z,0.52
2018-02-24T00:50:20.821Z,0.51
2018-02-24T00:51:46.749Z,0.49
2018-02-24T00:53:13.861Z,0.48
2018-02-24T00:54:41.850Z,0.39
2018-02-24T00:56:07.999Z,0.36
2018-02-24T00:57:36.077Z,0.32
2018-02-24T00:59:03.047Z,0.25
2018-02-24T01:00:30.312Z,0.20
2018-02-24T01:01:56.491Z,0.17
2018-02-24T01:03:24.623Z,0.14
2018-02-24T01:04:50.471Z,0.12
2018-02-24T01:06:18.676Z,0.12
2018-02-24T01:07:45.666Z,0.11
2018-02-24T01:09:12.507Z,0.11
2018-02-24T01:10:38.636Z,0.10
2018-02-24T01:12:06.721Z,0.09
2018-02-24T01:13:33.747Z,0.07
2018-02-24T01:14:59.647Z,0.06
2018-02-24T01:16:27.836Z,0.05
2018-02-24T01:17:54.019Z,0.07
2018-02-24T01:19:21.059Z,0.07
2018-02-24T01:20:47.987Z,0.09
2018-02-24T01:22:16.057Z,0.11
2018-02-24T01:23:42.040Z,0.13
2018-02-24T01:25:09.869Z,0.16
2018-02-24T01:26:36.829Z,0.18
2018-02-24T01:28:02.728Z,0.20
2018-02-24T01:29:29.941Z,0.20
2018-02-24T01:30:58.255Z,0.22
2018-02-24T01:32:25.492Z,0.24
2018-02-24T01:33:51.504Z,0.26
2018-02-24T01:35:19.511Z,0.28
2018-02-24T01:36:45.726Z,0.31
2018-02-24T01:38:12.845Z,0.32
2018-02-24T01:39:40.161Z,0.30
2018-02-24T01:41:08.275Z,0.32
2018-02-24T01:42:35.369Z,0.32
2018-02-24T01:44:02.443Z,0.33
2018-02-24T01:45:29.935Z,0.34
2018-02-24T01:46:56.848Z,0.34
2018-02-24T01:48:23.491Z,0.34
2018-02-24T01:49:50.760Z,0.33
2018-02-24T01:51:16.964Z,0.33
2018-02-24T01:52:45.027Z,0.33
2018-02-24T01:54:12.276Z,0.33
2018-02-24T01:55:38.437Z,0.34
2018-02-24T01:57:06.421Z,0.34
2018-02-24T01:58:33.296Z,0.35
2018-02-24T01:59:59.493Z,0.36
2018-02-24T02:01:27.604Z,0.36
2018-02-24T02:02:53.712Z,0.38
2018-02-24T02:04:21.736Z,0.40
2018-02-24T02:05:48.898Z,0.41
2018-02-24T02:07:15.997Z,0.42
2018-02-24T02:08:43.222Z,0.43
2018-02-24T02:10:10.183Z,0.41
2018-02-24T02:11:36.325Z,0.41
2018-02-24T02:13:03.434Z,0.40
2018-02-24T02:14:31.372Z,0.40
2018-02-24T02:15:57.530Z,0.40
2018-02-24T02:17:25.786Z,0.38
2018-02-24T02:18:54.488Z,0.37
2018-02-24T02:20:18.644Z,0.37
2018-02-24T02:21:46.818Z,0.39
2018-02-24T02:23:12.973Z,0.37
2018-02-24T02:24:40.875Z,0.38
2018-02-24T02:26:08.084Z,0.39
2018-02-24T02:27:34.166Z,0.39
2018-02-24T02:29:01.260Z,0.39
2018-02-24T02:30:29.337Z,0.39
2018-02-24T02:31:56.437Z,0.38
2018-02-24T02:33:23.316Z,0.38
2018-02-24T02:34:49.439Z,0.38
2018-02-24T02:36:17.512Z,0.39
2018-02-24T02:37:43.728Z,0.39
2018-02-24T02:39:11.674Z,0.40
2018-02-24T02:40:37.822Z,0.41
2018-02-24T02:42:04.626Z,0.41
2018-02-24T02:43:31.637Z,0.42
2018-02-24T02:44:59.813Z,0.42
2018-02-24T02:46:25.930Z,0.44
2018-02-24T02:47:53.083Z,0.43
2018-02-24T02:49:21.223Z,0.44
2018-02-24T02:50:48.283Z,0.44
2018-02-24T02:52:15.534Z,0.45
2018-02-24T02:53:41.671Z,0.46
2018-02-24T02:55:09.689Z,0.46
2018-02-24T02:56:35.901Z,0.46
2018-02-24T02:58:03.065Z,0.46
2018-02-24T02:59:31.069Z,0.45
2018-02-24T03:00:57.234Z,0.44
2018-02-24T03:02:24.308Z,0.42
2018-02-24T03:03:51.258Z,0.43
2018-02-24T03:05:18.329Z,0.43
2018-02-24T03:06:46.499Z,0.44
2018-02-24T03:08:12.550Z,0.46
2018-02-24T03:09:40.544Z,0.47
2018-02-24T03:11:07.707Z,0.46
2018-02-24T03:12:33.735Z,0.47
2018-02-24T03:14:01.471Z,0.47
2018-02-24T03:15:27.645Z,0.46
2018-02-24T03:16:54.713Z,0.47
2018-02-24T03:18:22.679Z,0.47
2018-02-24T03:19:49.700Z,0.47
2018-02-24T03:21:15.982Z,0.47
2018-02-24T03:22:43.937Z,0.46
2018-02-24T03:24:10.976Z,0.46
2018-02-24T03:25:37.015Z,0.46
2018-02-24T03:27:05.019Z,0.46
2018-02-24T03:28:30.815Z,0.45
2018-02-24T03:29:57.898Z,0.45
2018-02-24T03:31:24.719Z,0.45
2018-02-24T03:32:51.914Z,0.44
2018-02-24T03:34:18.972Z,0.46
2018-02-24T03:35:46.118Z,0.47
2018-02-24T03:37:13.997Z,0.47
2018-02-24T03:38:39.951Z,0.48
2018-02-24T03:40:07.081Z,0.48
2018-02-24T03:41:35.079Z,0.49
2018-02-24T03:43:01.068Z,0.49
2018-02-24T03:44:28.120Z,0.48
2018-02-24T03:45:56.242Z,0.48
2018-02-24T03:47:23.266Z,0.49
2018-02-24T03:48:49.310Z,0.47
2018-02-24T03:50:16.416Z,0.47
2018-02-24T03:51:43.389Z,0.47
2018-02-24T03:53:10.588Z,0.48
2018-02-24T03:54:37.689Z,0.49
2018-02-24T03:56:05.490Z,0.48
2018-02-24T03:57:32.303Z,0.46
2018-02-24T03:58:59.557Z,0.46
2018-02-24T04:00:25.452Z,0.44
2018-02-24T04:01:52.393Z,0.42
2018-02-24T04:03:20.616Z,0.41
2018-02-24T04:04:47.574Z,0.41
2018-02-24T04:06:14.658Z,0.41
2018-02-24T04:07:41.493Z,0.41
2018-02-24T04:09:08.659Z,0.41
2018-02-24T04:10:35.742Z,0.42
2018-02-24T04:12:02.528Z,0.42
2018-02-24T04:13:29.656Z,0.42
2018-02-24T04:14:55.748Z,0.41
2018-02-24T04:16:22.885Z,0.40
2018-02-24T04:17:50.009Z,0.39
2018-02-24T04:19:17.916Z,0.37
2018-02-24T04:20:44.126Z,0.36
2018-02-24T04:22:11.688Z,0.36
2018-02-24T04:23:37.695Z,0.36
2018-02-24T04:25:05.821Z,0.36
2018-02-24T04:26:32.632Z,0.36
2018-02-24T04:27:58.875Z,0.37
2018-02-24T04:29:26.105Z,0.37
2018-02-24T04:30:53.163Z,0.37
2018-02-24T04:32:20.083Z,0.38
2018-02-24T04:33:47.159Z,0.38
2018-02-24T04:35:15.164Z,0.38
2018-02-24T04:36:41.975Z,0.37
2018-02-24T04:38:09.134Z,0.36
2018-02-24T04:39:36.164Z,0.36
2018-02-24T04:41:03.238Z,0.37
2018-02-24T04:42:29.195Z,0.37
2018-02-24T04:43:57.497Z,0.36
2018-02-24T04:45:24.721Z,0.37
2018-02-24T04:46:51.851Z,0.38
2018-02-24T04:48:18.948Z,0.37
2018-02-24T04:49:45.960Z,0.37
2018-02-24T04:51:12.092Z,0.38
2018-02-24T04:52:40.173Z,0.38
2018-02-24T04:54:07.119Z,0.38
2018-02-24T04:55:33.150Z,0.38
2018-02-24T04:57:00.267Z,0.37
2018-02-24T04:58:28.149Z,0.37
2018-02-24T04:59:54.213Z,0.38
2018-02-24T05:01:22.205Z,0.37
2018-02-24T05:02:48.062Z,0.37
2018-02-24T05:04:15.040Z,0.37
2018-02-24T05:05:41.913Z,0.38
2018-02-24T05:07:08.810Z,0.40
2018-02-24T05:08:36.797Z,0.39
2018-02-24T05:10:03.935Z,0.38
2018-02-24T05:11:29.893Z,0.38
2018-02-24T05:12:57.212Z,0.39
2018-02-24T05:14:25.271Z,0.41
2018-02-24T05:15:52.574Z,0.42
2018-02-24T05:17:19.495Z,0.42
2018-02-24T05:18:46.554Z,0.43
2018-02-24T05:20:12.776Z,0.43
2018-02-24T05:21:39.743Z,0.43
2018-02-24T05:23:06.989Z,0.42
2018-02-24T05:24:33.792Z,0.42
2018-02-24T05:26:01.592Z,0.39
2018-02-24T05:27:28.716Z,0.38
2018-02-24T05:28:54.842Z,0.37
2018-02-24T05:30:21.743Z,0.34
2018-02-24T05:31:49.868Z,0.33
2018-02-24T05:33:15.845Z,0.33
2018-02-24T05:34:42.988Z,0.32
2018-02-24T05:36:11.151Z,0.28
2018-02-24T05:37:43.392Z,0.25
2018-02-24T05:39:05.107Z,0.25
2018-02-24T05:40:32.048Z,0.23
2018-02-24T05:41:58.229Z,0.24
2018-02-24T05:43:25.278Z,0.23
2018-02-24T05:44:52.328Z,0.23
2018-02-24T05:46:20.479Z,0.21
2018-02-24T05:47:47.383Z,0.20
2018-02-24T05:49:14.650Z,0.19
2018-02-24T05:50:41.619Z,0.17
2018-02-24T05:52:07.585Z,0.15
2018-02-24T05:53:34.663Z,0.16
2018-02-24T05:55:01.586Z,0.14
2018-02-24T05:56:29.745Z,0.15
2018-02-24T05:57:56.713Z,0.15
2018-02-24T05:59:23.909Z,0.15
2018-02-24T06:00:50.996Z,0.15
2018-02-24T06:02:17.188Z,0.16
2018-02-24T06:03:45.476Z,0.15
2018-02-24T06:05:12.635Z,0.14
2018-02-24T06:06:39.584Z,0.12
2018-02-24T06:08:06.721Z,0.06
2018-02-24T06:09:33.626Z,0.03
2018-02-24T06:11:00.781Z,0.00
2018-02-24T06:12:26.942Z,-0.04
2018-02-24T06:13:55.063Z,-0.08
2018-02-24T06:15:21.073Z,-0.13
2018-02-24T06:16:49.266Z,-0.18
2018-02-24T06:18:15.398Z,-0.19
2018-02-24T06:19:43.486Z,-0.20
2018-02-24T06:21:09.332Z,-0.22
2018-02-24T06:22:37.432Z,-0.25
2018-02-24T06:24:03.536Z,-0.28
2018-02-24T06:25:31.454Z,-0.30
2018-02-24T06:26:57.640Z,-0.30
2018-02-24T06:28:25.776Z,-0.31
2018-02-24T06:29:51.770Z,-0.32
2018-02-24T06:31:18.869Z,-0.34
2018-02-24T06:32:46.816Z,-0.38
2018-02-24T06:34:13.835Z,-0.41
2018-02-24T06:35:40.019Z,-0.42
2018-02-24T06:37:07.061Z,-0.44
2018-02-24T06:38:34.981Z,-0.45
2018-02-24T06:40:01.899Z,-0.46
2018-02-24T06:41:29.008Z,-0.48
2018-02-24T06:42:56.043Z,-0.50
2018-02-24T06:44:23.200Z,-0.52
2018-02-24T06:45:49.411Z,-0.52
2018-02-24T06:47:17.210Z,-0.52
2018-02-24T06:48:44.351Z,-0.53
2018-02-24T06:50:11.087Z,-0.55
2018-02-24T06:51:38.031Z,-0.55
2018-02-24T06:53:04.104Z,-0.55
2018-02-24T06:54:31.852Z,-0.55
2018-02-24T06:55:57.877Z,-0.53
2018-02-24T06:57:26.185Z,-0.55
2018-02-24T06:58:53.149Z,-0.55
2018-02-24T07:00:20.323Z,-0.56
2018-02-24T07:01:46.445Z,-0.55
2018-02-24T07:03:14.521Z,-0.53
2018-02-24T07:04:41.471Z,-0.51
2018-02-24T07:06:08.392Z,-0.50
2018-02-24T07:07:35.446Z,-0.49
2018-02-24T07:09:02.217Z,-0.48
2018-02-24T07:10:29.246Z,-0.49
2018-02-24T07:11:55.345Z,-0.46
2018-02-24T07:13:23.430Z,-0.43
2018-02-24T07:14:50.505Z,-0.40
2018-02-24T07:16:16.520Z,-0.37
2018-02-24T07:17:46.585Z,-0.33
2018-02-24T07:19:10.517Z,-0.32
2018-02-24T07:20:37.560Z,-0.30
2018-02-24T07:22:04.759Z,-0.28
2018-02-24T07:23:32.861Z,-0.26
2018-02-24T07:25:00.000Z,-0.26
2018-02-24T07:26:26.035Z,-0.25
2018-02-24T07:27:54.218Z,-0.24
2018-02-24T07:29:20.162Z,-0.27
2018-02-24T07:30:48.304Z,-0.26
2018-02-24T07:32:14.214Z,-0.27
2018-02-24T07:33:41.449Z,-0.26
2018-02-24T07:35:09.644Z,-0.24
2018-02-24T07:36:36.603Z,-0.21
2018-02-24T07:38:03.644Z,-0.20
2018-02-24T07:39:29.779Z,-0.16
2018-02-24T07:40:57.852Z,-0.16
2018-02-24T07:42:24.772Z,-0.15
2018-02-24T07:43:50.850Z,-0.12
2018-02-24T07:45:19.030Z,-0.11
2018-02-24T07:46:45.256Z,-0.11
2018-02-24T07:48:13.481Z,-0.08
2018-02-24T07:49:40.410Z,-0.08
2018-02-24T07:51:07.366Z,-0.07
2018-02-24T07:52:34.353Z,-0.06
2018-02-24T07:54:00.158Z,-0.03
2018-02-24T07:55:28.383Z,-0.01
2018-02-24T07:56:55.511Z,0.02
2018-02-24T07:58:24.517Z,0.03
2018-02-24T07:59:49.575Z,0.06
2018-02-24T08:01:16.510Z,0.09
2018-02-24T08:02:43.687Z,0.10
2018-02-24T08:04:09.769Z,0.12
2018-02-24T08:05:36.798Z,0.10
2018-02-24T08:07:03.960Z,0.10
2018-02-24T08:08:31.038Z,0.10
2018-02-24T08:09:57.900Z,0.12
2018-02-24T08:11:26.119Z,0.14
2018-02-24T08:12:53.117Z,0.15
2018-02-24T08:14:19.276Z,0.14
2018-02-24T08:15:47.447Z,0.12
2018-02-24T08:17:14.614Z,0.12
2018-02-24T08:18:40.714Z,0.12
2018-02-24T08:20:08.764Z,0.12
2018-02-24T08:21:35.654Z,0.15
2018-02-24T08:23:02.870Z,0.20
2018-02-24T08:24:29.657Z,0.24
2018-02-24T08:25:56.728Z,0.32
2018-02-24T08:27:23.033Z,0.34
2018-02-24T08:28:50.087Z,0.36
2018-02-24T08:30:18.178Z,0.41
2018-02-24T08:31:45.227Z,0.46
2018-02-24T08:33:12.261Z,0.46
2018-02-24T08:34:38.263Z,0.45
2018-02-24T08:36:05.371Z,0.45
2018-02-24T08:37:33.353Z,0.44
2018-02-24T08:38:59.643Z,0.41
2018-02-24T08:40:26.491Z,0.37
2018-02-24T08:41:53.652Z,0.34
2018-02-24T08:43:20.806Z,0.33
2018-02-24T08:44:48.987Z,0.33
2018-02-24T08:46:16.051Z,0.32
2018-02-24T08:47:43.149Z,0.33
2018-02-24T08:49:09.152Z,0.37
2018-02-24T08:50:36.149Z,0.41
2018-02-24T08:52:04.231Z,0.41
2018-02-24T08:53:31.377Z,0.36
2018-02-24T08:54:57.277Z,0.30
2018-02-24T08:56:25.471Z,0.24
2018-02-24T08:57:51.735Z,0.24
2018-02-24T08:59:19.872Z,0.23
2018-02-24T09:00:46.889Z,0.23
2018-02-24T09:02:13.856Z,0.22
2018-02-24T09:03:40.956Z,0.24
2018-02-24T09:05:08.145Z,0.30
2018-02-24T09:06:35.244Z,0.39
2018-02-24T09:08:02.194Z,0.45
2018-02-24T09:09:28.445Z,0.46
2018-02-24T09:10:56.702Z,0.49
2018-02-24T09:12:22.822Z,0.51
2018-02-24T09:13:50.887Z,0.55
2018-02-24T09:15:18.039Z,0.59
2018-02-24T09:16:45.171Z,0.59
2018-02-24T09:18:12.226Z,0.58
2018-02-24T09:19:38.353Z,0.59
2018-02-24T09:21:06.436Z,0.58
2018-02-24T09:22:33.612Z,0.55
2018-02-24T09:23:59.594Z,0.47
2018-02-24T09:25:26.700Z,0.34
2018-02-24T09:26:53.843Z,0.24
2018-02-24T09:28:20.773Z,0.17
2018-02-24T09:29:49.025Z,0.12
2018-02-24T09:31:15.267Z,0.10
2018-02-24T09:32:43.093Z,0.09
2018-02-24T09:34:10.046Z,0.10
2018-02-24T09:35:37.109Z,0.12
2018-02-24T09:37:02.999Z,0.14
2018-02-24T09:38:31.073Z,0.13
2018-02-24T09:39:57.314Z,0.11
2018-02-24T09:41:24.582Z,0.06
2018-02-24T09:42:52.725Z,0.05
2018-02-24T09:44:19.701Z,0.05
2018-02-24T09:45:46.813Z,0.12
2018-02-24T09:47:12.627Z,0.23
2018-02-24T09:48:40.729Z,0.26
2018-02-24T09:50:07.892Z,0.34
2018-02-24T09:51:33.929Z,0.43
2018-02-24T09:53:00.648Z,0.49
2018-02-24T09:54:28.891Z,0.44
2018-02-24T09:55:55.953Z,0.39
2018-02-24T09:57:22.065Z,0.27
2018-02-24T09:58:49.134Z,0.20
2018-02-24T10:00:17.073Z,0.15
2018-02-24T10:01:43.293Z,0.09
2018-02-24T10:03:10.373Z,0.04
2018-02-24T10:04:38.534Z,0.06
2018-02-24T10:06:05.135Z,0.12
2018-02-24T10:07:31.994Z,0.22
2018-02-24T10:08:58.255Z,0.31
2018-02-24T10:10:26.330Z,0.37
2018-02-24T10:11:53.396Z,0.40
2018-02-24T10:13:20.460Z,0.47
2018-02-24T10:14:47.574Z,0.47
2018-02-24T10:16:14.686Z,0.55
2018-02-24T10:17:40.709Z,0.65
2018-02-24T10:19:08.649Z,0.75
2018-02-24T10:20:34.737Z,0.86
2018-02-24T10:22:02.673Z,0.95
2018-02-24T10:23:28.862Z,0.98
2018-02-24T10:24:56.033Z,0.88
2018-02-24T10:26:23.069Z,0.82
2018-02-24T10:27:50.084Z,0.82
2018-02-24T10:29:18.322Z,0.77
2018-02-24T10:30:44.482Z,0.74
2018-02-24T10:32:12.452Z,0.74
2018-02-24T10:33:38.655Z,0.69
2018-02-24T10:35:06.820Z,0.65
2018-02-24T10:36:32.873Z,0.60
2018-02-24T10:38:00.993Z,0.53
2018-02-24T10:39:28.115Z,0.42
2018-02-24T10:40:55.283Z,0.39
2018-02-24T10:42:21.402Z,0.43
2018-02-24T10:43:48.374Z,0.49
2018-02-24T10:45:16.352Z,0.56
2018-02-24T10:46:42.556Z,0.63
2018-02-24T10:48:09.339Z,0.67
2018-02-24T10:49:37.144Z,0.69
2018-02-24T10:51:04.091Z,0.63
2018-02-24T10:52:30.183Z,0.56
2018-02-24T10:53:58.210Z,0.50
2018-02-24T10:55:25.283Z,0.46
2018-02-24T10:56:51.222Z,0.39
2018-02-24T10:58:19.519Z,0.34
2018-02-24T10:59:46.504Z,0.31
2018-02-24T11:01:12.491Z,0.28
2018-02-24T11:02:39.604Z,0.26
2018-02-24T11:04:06.631Z,0.28
2018-02-24T11:05:34.640Z,0.30
2018-02-24T11:07:01.748Z,0.32
2018-02-24T11:08:28.027Z,0.33
2018-02-24T11:09:55.994Z,0.31
2018-02-24T11:11:23.255Z,0.28
2018-02-24T11:12:50.379Z,0.27
2018-02-24T11:14:17.599Z,0.26
2018-02-24T11:15:44.719Z,0.29
2018-02-24T11:17:10.804Z,0.33
2018-02-24T11:18:37.920Z,0.37
2018-02-24T11:20:04.908Z,0.43
2018-02-24T11:21:32.933Z,0.47
2018-02-24T11:23:00.236Z,0.50
2018-02-24T11:24:27.243Z,0.51
2018-02-24T11:25:53.333Z,0.49
2018-02-24T11:27:20.458Z,0.47
2018-02-24T11:28:48.595Z,0.48
2018-02-24T11:30:15.710Z,0.49
2018-02-24T11:31:42.877Z,0.47
2018-02-24T11:33:09.061Z,0.43
2018-02-24T11:34:36.091Z,0.40
2018-02-24T11:36:04.059Z,0.36
2018-02-24T11:37:31.168Z,0.36
2018-02-24T11:38:57.217Z,0.38
2018-02-24T11:40:25.363Z,0.39
2018-02-24T11:41:51.434Z,0.43
2018-02-24T11:43:19.424Z,0.51
2018-02-24T11:44:45.560Z,0.70
2018-02-24T11:46:13.799Z,0.82
2018-02-24T11:47:39.948Z,0.89
2018-02-24T11:49:08.080Z,0.93
2018-02-24T11:50:35.125Z,0.91
2018-02-24T11:52:02.101Z,0.97
2018-02-24T11:53:28.942Z,0.94
2018-02-24T11:54:54.779Z,0.88
2018-02-24T11:56:22.963Z,0.82
2018-02-24T11:57:50.151Z,0.78
2018-02-24T11:59:16.282Z,0.77
2018-02-24T12:00:44.353Z,0.78
2018-02-24T12:02:11.659Z,0.76
2018-02-24T12:03:38.720Z,0.78
2018-02-24T12:05:05.752Z,0.77
2018-02-24T12:06:32.860Z,0.75
2018-02-24T12:07:59.913Z,0.72
2018-02-24T12:09:26.019Z,0.69
2018-02-24T12:10:54.185Z,0.70
2018-02-24T12:12:21.311Z,0.73
2018-02-24T12:13:48.400Z,0.79
2018-02-24T12:15:15.332Z,0.88
2018-02-24T12:16:42.416Z,0.89
2018-02-24T12:18:08.355Z,0.89
2018-02-24T12:19:36.574Z,0.90
2018-02-24T12:21:03.580Z,1.02
2018-02-24T12:22:29.836Z,1.25
2018-02-24T12:23:58.086Z,1.49
2018-02-24T12:25:25.212Z,1.73
2018-02-24T12:26:51.261Z,1.79
2018-02-24T12:28:19.299Z,1.79
2018-02-24T12:29:46.390Z,1.77
2018-02-24T12:31:13.272Z,1.83
2018-02-24T12:32:39.393Z,1.88
2018-02-24T12:34:07.440Z,1.91
2018-02-24T12:35:33.552Z,2.02
2018-02-24T12:37:00.738Z,2.05
2018-02-24T12:38:28.902Z,2.13
2018-02-24T12:39:56.120Z,2.22
2018-02-24T12:41:23.303Z,2.36
2018-02-24T12:42:50.246Z,2.37
2018-02-24T12:44:16.325Z,2.41
2018-02-24T12:45:44.417Z,2.48
2018-02-24T12:47:11.336Z,2.58
2018-02-24T12:48:38.494Z,2.53
2018-02-24T12:50:05.575Z,2.58
2018-02-24T12:51:31.705Z,2.68
2018-02-24T12:52:58.911Z,2.68
2018-02-24T12:54:27.132Z,2.58
2018-02-24T12:55:53.319Z,2.39
2018-02-24T12:57:21.441Z,2.01
2018-02-24T12:58:48.626Z,1.77
2018-02-24T13:00:15.427Z,1.64
2018-02-24T13:01:42.593Z,1.54
2018-02-24T13:03:09.630Z,1.41
2018-02-24T13:04:36.658Z,1.41
2018-02-24T13:06:03.704Z,1.43
2018-02-24T13:07:30.575Z,1.38
2018-02-24T13:08:57.421Z,1.41
2018-02-24T13:10:23.471Z,1.41
2018-02-24T13:11:51.532Z,1.44
2018-02-24T13:13:17.717Z,1.43
2018-02-24T13:14:45.856Z,1.29
2018-02-24T13:16:11.954Z,1.18
2018-02-24T13:17:38.843Z,1.09
2018-02-24T13:19:06.789Z,1.21
2018-02-24T13:20:33.927Z,1.34
2018-02-24T13:22:00.822Z,1.38
2018-02-24T13:23:27.092Z,1.60
2018-02-24T13:24:55.336Z,1.77
2018-02-24T13:26:22.298Z,1.97
2018-02-24T13:27:49.431Z,2.12
2018-02-24T13:29:16.584Z,2.18
2018-02-24T13:30:43.570Z,2.25
2018-02-24T13:32:09.722Z,2.05
2018-02-24T13:33:36.840Z,1.74
2018-02-24T13:35:04.846Z,1.50
2018-02-24T13:36:31.943Z,1.30
2018-02-24T13:37:59.054Z,1.14
2018-02-24T13:39:25.385Z,0.94
2018-02-24T13:40:53.102Z,0.77
2018-02-24T13:42:19.228Z,0.65
2018-02-24T13:43:46.359Z,0.64
2018-02-24T13:45:14.496Z,0.68
2018-02-24T13:46:41.710Z,0.79
2018-02-24T13:48:07.804Z,0.92
2018-02-24T13:49:35.923Z,1.04
2018-02-24T13:51:02.915Z,1.09
2018-02-24T13:52:30.225Z,1.18
2018-02-24T13:53:57.083Z,1.12
2018-02-24T13:55:23.247Z,1.04
2018-02-24T13:56:50.464Z,0.89
2018-02-24T13:58:18.584Z,0.75
2018-02-24T13:59:44.817Z,0.72
2018-02-24T14:01:11.079Z,0.74
2018-02-24T14:02:38.297Z,0.81
2018-02-24T14:04:05.452Z,0.91
2018-02-24T14:05:33.471Z,0.99
2018-02-24T14:07:00.598Z,1.02
2018-02-24T14:08:27.770Z,1.08
2018-02-24T14:09:54.828Z,1.06
2018-02-24T14:11:21.880Z,1.04
2018-02-24T14:12:47.901Z,1.01
2018-02-24T14:14:15.094Z,1.02
2018-02-24T14:15:43.167Z,1.06
2018-02-24T14:17:09.274Z,1.06
2018-02-24T14:18:37.230Z,1.12
2018-02-24T14:20:04.151Z,1.22
2018-02-24T14:21:30.137Z,1.31
2018-02-24T14:22:58.386Z,1.32
2018-02-24T14:24:24.427Z,1.28
2018-02-24T14:25:51.713Z,1.18
2018-02-24T14:27:19.863Z,1.15
2018-02-24T14:28:45.940Z,1.18
2018-02-24T14:30:12.818Z,1.29
2018-02-24T14:31:39.877Z,1.34
2018-02-24T14:33:07.035Z,1.35
2018-02-24T14:34:34.276Z,1.33
2018-02-24T14:36:01.170Z,1.34
2018-02-24T14:37:28.257Z,1.34
2018-02-24T14:38:55.377Z,1.36
2018-02-24T14:40:23.580Z,1.35
2018-02-24T14:41:50.807Z,1.26
2018-02-24T14:43:16.750Z,1.15
2018-02-24T14:44:44.058Z,1.06
2018-02-24T14:46:11.925Z,0.98
2018-02-24T14:47:38.061Z,0.82
2018-02-24T14:49:06.202Z,0.72
2018-02-24T14:50:32.284Z,0.57
2018-02-24T14:51:59.360Z,0.44
2018-02-24T14:53:27.432Z,0.36
2018-02-24T14:54:54.580Z,0.28
2018-02-24T14:56:21.729Z,0.10
2018-02-24T14:57:48.831Z,-0.08
2018-02-24T14:59:14.892Z,-0.20
2018-02-24T15:00:43.055Z,-0.27
2018-02-24T15:02:10.198Z,-0.31
2018-02-24T15:03:36.183Z,-0.37
2018-02-24T15:05:03.102Z,-0.38
2018-02-24T15:06:30.919Z,-0.42
2018-02-24T15:07:56.934Z,-0.43
2018-02-24T15:09:23.883Z,-0.42
2018-02-24T15:10:51.021Z,-0.46
2018-02-24T15:12:18.035Z,-0.48
2018-02-24T15:13:46.169Z,-0.49
2018-02-24T15:15:12.261Z,-0.49
2018-02-24T15:16:40.146Z,-0.49
2018-02-24T15:18:07.335Z,-0.51
2018-02-24T15:19:33.250Z,-0.53
2018-02-24T15:21:00.197Z,-0.57
2018-02-24T15:22:28.078Z,-0.58
2018-02-24T15:23:55.074Z,-0.59
2018-02-24T15:25:22.224Z,-0.60
2018-02-24T15:26:49.215Z,-0.59
2018-02-24T15:28:15.293Z,-0.60
2018-02-24T15:29:43.276Z,-0.59
2018-02-24T15:31:10.478Z,-0.56
2018-02-24T15:32:36.427Z,-0.53
2018-02-24T15:34:03.502Z,-0.51
2018-02-24T15:35:31.434Z,-0.45
2018-02-24T15:36:58.394Z,-0.40
2018-02-24T15:38:25.288Z,-0.37
2018-02-24T15:39:52.378Z,-0.32
2018-02-24T15:41:19.316Z,-0.27
2018-02-24T15:42:46.222Z,-0.25
2018-02-24T15:44:13.254Z,-0.21
2018-02-24T15:45:40.300Z,-0.18
2018-02-24T15:47:07.326Z,-0.14
2018-02-24T15:48:34.235Z,-0.12
2018-02-24T15:50:00.347Z,-0.09
2018-02-24T15:51:28.401Z,-0.11
2018-02-24T15:52:55.394Z,-0.14
2018-02-24T15:54:22.509Z,-0.15
2018-02-24T15:55:49.526Z,-0.17
2018-02-24T15:57:16.516Z,-0.21
2018-02-24T15:58:43.372Z,-0.23
2018-02-24T16:00:10.662Z,-0.29
2018-02-24T16:01:37.613Z,-0.35
2018-02-24T16:03:04.659Z,-0.39
2018-02-24T16:04:31.893Z,-0.43
2018-02-24T16:05:58.053Z,-0.45
2018-02-24T16:07:25.165Z,-0.49
2018-02-24T16:08:53.048Z,-0.51
2018-02-24T16:10:19.074Z,-0.57
2018-02-24T16:11:46.176Z,-0.63
2018-02-24T16:13:14.017Z,-0.67
2018-02-24T16:14:40.993Z,-0.70
2018-02-24T16:16:08.038Z,-0.74
2018-02-24T16:17:35.106Z,-0.77
2018-02-24T16:19:01.924Z,-0.80
2018-02-24T16:20:28.896Z,-0.81
2018-02-24T16:21:56.012Z,-0.82
2018-02-24T16:23:22.888Z,-0.82
2018-02-24T16:24:49.984Z,-0.84
2018-02-24T16:26:16.981Z,-0.86
2018-02-24T16:27:43.865Z,-0.87
2018-02-24T16:29:09.772Z,-0.88
2018-02-24T16:30:36.574Z,-0.89
2018-02-24T16:32:04.580Z,-0.90
2018-02-24T16:33:31.646Z,-0.92
2018-02-24T16:34:58.641Z,-0.92
2018-02-24T16:36:24.661Z,-0.92
2018-02-24T16:37:52.608Z,-0.94
2018-02-24T16:39:19.844Z,-0.95
2018-02-24T16:40:46.841Z,-0.98
2018-02-24T16:42:12.898Z,-0.98
2018-02-24T16:43:40.814Z,-0.98
2018-02-24T16:45:07.594Z,-1.00
2018-02-24T16:46:33.469Z,-1.04
2018-02-24T16:48:01.255Z,-1.07
2018-02-24T16:49:27.221Z,-1.10
2018-02-24T16:50:55.312Z,-1.12
2018-02-24T16:52:21.327Z,-1.12
2018-02-24T16:53:49.377Z,-1.14
2018-02-24T16:55:15.455Z,-1.16
2018-02-24T16:56:42.514Z,-1.18
2018-02-24T16:58:09.513Z,-1.21
2018-02-24T16:59:37.489Z,-1.22
2018-02-24T17:01:03.489Z,-1.24
2018-02-24T17:02:30.548Z,-1.25
2018-02-24T17:03:58.490Z,-1.27
2018-02-24T17:05:25.682Z,-1.30
2018-02-24T17:06:51.697Z,-1.29
2018-02-24T17:08:19.617Z,-1.30
2018-02-24T17:09:45.588Z,-1.32
2018-02-24T17:11:13.632Z,-1.34
2018-02-24T17:12:40.650Z,-1.34
2018-02-24T17:14:07.630Z,-1.37
2018-02-24T17:15:33.784Z,-1.40
2018-02-24T17:17:01.684Z,-1.43
2018-02-24T17:18:27.772Z,-1.43
2018-02-24T17:19:55.734Z,-1.44
2018-02-24T17:21:21.704Z,-1.45
2018-02-24T17:22:48.893Z,-1.45
2018-02-24T17:24:16.680Z,-1.47
2018-02-24T17:25:43.552Z,-1.47
2018-02-24T17:27:10.539Z,-1.47
2018-02-24T17:28:37.700Z,-1.48
2018-02-24T17:30:03.674Z,-1.52
2018-02-24T17:31:31.698Z,-1.54
2018-02-24T17:32:57.604Z,-1.56
2018-02-24T17:34:24.634Z,-1.57
2018-02-24T17:35:52.761Z,-1.59
2018-02-24T17:37:19.837Z,-1.60
2018-02-24T17:38:46.878Z,-1.60
2018-02-24T17:40:13.794Z,-1.62
2018-02-24T17:41:40.870Z,-1.64
2018-02-24T17:43:12.696Z,-1.66
2018-02-24T17:44:33.562Z,-1.66
2018-02-24T17:46:01.552Z,-1.67
2018-02-24T17:47:28.624Z,-1.68
2018-02-24T17:48:55.713Z,-1.68
2018-02-24T17:50:22.754Z,-1.68
2018-02-24T17:51:48.648Z,-1.68
2018-02-24T17:53:15.607Z,-1.69
2018-02-24T17:54:42.619Z,-1.71
2018-02-24T17:56:09.701Z,-1.72
2018-02-24T17:57:37.693Z,-1.72
2018-02-24T17:59:04.747Z,-1.72
2018-02-24T18:00:31.565Z,-1.71
2018-02-24T18:01:57.540Z,-1.71
2018-02-24T18:03:25.511Z,-1.71
2018-02-24T18:04:51.445Z,-1.71
2018-02-24T18:06:18.651Z,-1.71
2018-02-24T18:07:46.644Z,-1.70
2018-02-24T18:09:13.644Z,-1.70
2018-02-24T18:10:40.634Z,-1.71
2018-02-24T18:12:07.433Z,-1.72
2018-02-24T18:13:34.377Z,-1.73
2018-02-24T18:15:00.316Z,-1.75
2018-02-24T18:16:27.350Z,-1.75
2018-02-24T18:17:55.486Z,-1.76
2018-02-24T18:19:21.622Z,-1.78
2018-02-24T18:20:49.718Z,-1.80
2018-02-24T18:22:16.559Z,-1.82
2018-02-24T18:23:43.330Z,-1.82
2018-02-24T18:25:09.367Z,-1.83
2018-02-24T18:26:37.355Z,-1.83
2018-02-24T18:28:04.234Z,-1.83
2018-02-24T18:29:31.207Z,-1.83
2018-02-24T18:30:57.192Z,-1.83
2018-02-24T18:32:25.096Z,-1.84
2018-02-24T18:33:51.171Z,-1.84
2018-02-24T18:35:19.060Z,-1.85
2018-02-24T18:36:45.132Z,-1.86
2018-02-24T18:38:13.230Z,-1.85
2018-02-24T18:39:40.175Z,-1.87
2018-02-24T18:41:06.330Z,-1.90
2018-02-24T18:42:34.281Z,-1.89
2018-02-24T18:44:00.237Z,-1.90
2018-02-24T18:45:27.321Z,-1.91
2018-02-24T18:46:55.296Z,-1.92
2018-02-24T18:48:22.288Z,-1.92
2018-02-24T18:49:49.291Z,-1.93
2018-02-24T18:51:16.196Z,-1.93
2018-02-24T18:52:42.111Z,-1.96
2018-02-24T18:54:08.954Z,-1.97
2018-02-24T18:55:36.793Z,-1.99
2018-02-24T18:57:02.712Z,-2.00
2018-02-24T18:58:30.798Z,-2.00
2018-02-24T18:59:56.886Z,-2.01
2018-02-24T19:01:24.799Z,-2.02
2018-02-24T19:02:51.794Z,-2.03
2018-02-24T19:04:17.784Z,-2.02
2018-02-24T19:05:44.695Z,-2.02
2018-02-24T19:07:12.796Z,-1.99